Time;durP1;ratioP1;P1;durP2;ratioP2;P2;SDS_P1;SDS_P2;PMS_P1;PMS_P2;Temp;Humidity;BMP_temperature;BMP_pressure;BME280_temperature;BME280_humidity;BME280_pressure;Samples;Min_cycle;Max_cycle;Signal;HPM_P1;HPM_P2
2022/03/16 00:01:52;;;;;;;8.38;4.40;;;;;;;;;;5057835;28;20081;-85
2022/03/16 00:04:18;;;;;;;8.07;4.30;;;;;;;;;;5059047;28;20032;-86
2022/03/16 00:06:43;;;;;;;7.80;4.63;;;;;;;;;;5063225;28;20017;-84
2022/03/16 00:09:09;;;;;;;13.35;4.40;;;;;;;;;;5059230;28;20021;-85
2022/03/16 00:11:34;;;;;;;6.55;3.58;;;;;;;;;;5062116;28;20044;-84
2022/03/16 00:14:00;;;;;;;6.65;3.85;;;;;;;;;;5057317;28;20044;-85
2022/03/16 00:16:25;;;;;;;8.80;4.25;;;;;;;;;;5062270;28;20032;-85
2022/03/16 00:18:51;;;;;;;8.45;4.28;;;;;;;;;;5056266;28;20024;-83
2022/03/16 00:21:16;;;;;;;8.85;5.15;;;;;;;;;;5063029;28;20031;-84
2022/03/16 00:23:42;;;;;;;10.05;4.90;;;;;;;;;;5056291;28;20085;-85
2022/03/16 00:26:07;;;;;;;8.88;4.90;;;;;;;;;;5056258;28;20518;-85
2022/03/16 00:28:33;;;;;;;8.45;4.60;;;;;;;;;;5049881;28;20377;-87
2022/03/16 00:30:58;;;;;;;6.22;3.97;;;;;;;;;;5059671;28;20047;-85
2022/03/16 00:33:23;;;;;;;11.73;5.70;;;;;;;;;;5050326;28;20021;-86
2022/03/16 00:35:49;;;;;;;7.35;4.50;;;;;;;;;;5060221;28;20031;-87
2022/03/16 00:38:16;;;;;;;6.78;4.45;;;;;;;;;;5065697;28;20032;-85
2022/03/16 00:40:42;;;;;;;4.55;3.65;;;;;;;;;;5069774;28;20380;-86
2022/03/16 00:43:08;;;;;;;5.78;3.55;;;;;;;;;;5068517;28;20032;-86
2022/03/16 00:45:33;;;;;;;5.93;3.45;;;;;;;;;;5071175;28;20028;-87
2022/03/16 00:47:59;;;;;;;9.50;4.13;;;;;;;;;;5057110;28;20028;-85
2022/03/16 00:50:24;;;;;;;5.57;3.60;;;;;;;;;;5064272;28;20115;-87
2022/03/16 00:52:50;;;;;;;7.60;3.78;;;;;;;;;;5071395;28;20032;-87
2022/03/16 00:55:16;;;;;;;8.95;4.15;;;;;;;;;;5067085;28;20024;-83
2022/03/16 00:57:41;;;;;;;5.90;3.85;;;;;;;;;;5062087;28;20017;-85
2022/03/16 01:00:08;;;;;;;9.80;5.05;;;;;;;;;;5055120;28;20698;-88
2022/03/16 01:02:33;;;;;;;4.63;3.20;;;;;;;;;;5069765;28;20385;-88
2022/03/16 01:04:59;;;;;;;8.73;4.13;;;;;;;;;;5065525;28;20020;-84
2022/03/16 01:07:25;;;;;;;7.18;4.32;;;;;;;;;;5049080;28;20024;-87
2022/03/16 01:09:50;;;;;;;7.35;4.60;;;;;;;;;;5057670;28;20048;-85
2022/03/16 01:12:16;;;;;;;5.80;3.22;;;;;;;;;;5065169;28;20024;-86
2022/03/16 01:14:42;;;;;;;7.88;4.50;;;;;;;;;;5066537;28;20378;-87
2022/03/16 01:17:08;;;;;;;8.32;4.22;;;;;;;;;;5068136;28;20468;-84
2022/03/16 01:19:34;;;;;;;9.90;4.60;;;;;;;;;;5059470;28;20031;-85
2022/03/16 01:22:02;;;;;;;8.07;4.35;;;;;;;;;;5067526;28;20028;-86
2022/03/16 01:24:27;;;;;;;8.48;4.50;;;;;;;;;;5058405;28;20024;-87
2022/03/16 01:26:54;;;;;;;7.75;3.78;;;;;;;;;;5064320;28;20492;-88
2022/03/16 01:29:19;;;;;;;7.78;4.00;;;;;;;;;;5065417;28;20020;-85
2022/03/16 01:31:44;;;;;;;7.60;4.32;;;;;;;;;;5053747;28;20033;-83
2022/03/16 01:34:10;;;;;;;8.27;4.20;;;;;;;;;;5053740;28;20369;-85
2022/03/16 01:36:37;;;;;;;6.85;4.43;;;;;;;;;;5055395;28;20033;-86
2022/03/16 01:39:04;;;;;;;10.32;5.40;;;;;;;;;;5073484;28;20031;-84
2022/03/16 01:41:29;;;;;;;11.48;4.75;;;;;;;;;;5062983;28;20029;-84
2022/03/16 01:43:56;;;;;;;8.18;5.60;;;;;;;;;;5063840;28;20033;-88
2022/03/16 01:46:22;;;;;;;7.80;4.68;;;;;;;;;;5062585;28;20028;-87
2022/03/16 01:48:48;;;;;;;7.80;5.10;;;;;;;;;;5071566;28;20383;-86
2022/03/16 01:51:13;;;;;;;7.40;4.28;;;;;;;;;;5062210;28;20036;-82
2022/03/16 01:53:43;;;;;;;6.53;4.20;;;;;;;;;;5061519;28;20051;-84
2022/03/16 01:56:09;;;;;;;6.13;3.58;;;;;;;;;;5067126;28;20024;-82
2022/03/16 01:58:35;;;;;;;5.60;2.90;;;;;;;;;;5055683;28;20067;-84
2022/03/16 02:01:01;;;;;;;6.13;4.03;;;;;;;;;;5053159;28;20056;-85
2022/03/16 02:03:27;;;;;;;12.13;5.55;;;;;;;;;;5059604;28;20471;-85
2022/03/16 02:05:54;;;;;;;9.50;4.43;;;;;;;;;;5072682;28;20028;-85
2022/03/16 02:08:19;;;;;;;7.88;3.85;;;;;;;;;;5067582;28;20384;-86
2022/03/16 02:10:45;;;;;;;8.75;4.25;;;;;;;;;;5065317;28;20048;-83
2022/03/16 02:13:11;;;;;;;7.00;3.75;;;;;;;;;;5070165;28;20032;-83
2022/03/16 02:15:37;;;;;;;7.50;3.78;;;;;;;;;;5057989;28;20465;-85
2022/03/16 02:18:02;;;;;;;7.10;3.90;;;;;;;;;;5057486;28;20028;-85
2022/03/16 02:20:28;;;;;;;5.93;3.72;;;;;;;;;;5072284;28;20066;-85
2022/03/16 02:23:02;;;;;;;6.68;3.80;;;;;;;;;;5071560;28;20085;-85
2022/03/16 02:25:30;;;;;;;7.90;4.50;;;;;;;;;;5055803;28;20437;-85
2022/03/16 02:27:56;;;;;;;6.35;3.33;;;;;;;;;;5066260;28;20032;-84
2022/03/16 02:30:23;;;;;;;5.57;3.45;;;;;;;;;;5054483;28;20021;-85
2022/03/16 02:32:49;;;;;;;8.32;4.35;;;;;;;;;;5061427;28;20032;-85
2022/03/16 02:35:15;;;;;;;8.15;3.92;;;;;;;;;;5054965;28;20033;-85
2022/03/16 02:37:41;;;;;;;6.90;3.50;;;;;;;;;;5058088;28;20032;-86
2022/03/16 02:40:10;;;;;;;6.05;4.05;;;;;;;;;;5056944;28;20048;-84
2022/03/16 02:42:36;;;;;;;7.20;4.57;;;;;;;;;;5058751;28;20488;-87
2022/03/16 02:45:02;;;;;;;7.63;4.28;;;;;;;;;;5061326;28;20028;-86
2022/03/16 02:47:28;;;;;;;4.95;3.72;;;;;;;;;;5063125;28;20388;-86
2022/03/16 02:49:54;;;;;;;5.70;4.03;;;;;;;;;;5063591;28;20028;-85
2022/03/16 02:52:22;;;;;;;5.90;3.70;;;;;;;;;;5058830;28;20077;-85
2022/03/16 02:54:48;;;;;;;6.88;4.13;;;;;;;;;;5061880;28;20028;-86
2022/03/16 02:57:16;;;;;;;8.25;4.20;;;;;;;;;;5062618;28;20108;-87
2022/03/16 02:59:42;;;;;;;9.13;4.57;;;;;;;;;;5065716;28;20051;-85
2022/03/16 03:02:07;;;;;;;7.40;3.83;;;;;;;;;;5054487;28;20631;-84
2022/03/16 03:04:33;;;;;;;7.78;3.63;;;;;;;;;;5053674;28;20033;-87
2022/03/16 03:06:59;;;;;;;7.70;3.35;;;;;;;;;;5060178;28;20028;-88
2022/03/16 03:09:25;;;;;;;8.13;4.38;;;;;;;;;;5057338;28;20029;-87
2022/03/16 03:11:51;;;;;;;6.28;3.58;;;;;;;;;;5071048;28;20439;-87
2022/03/16 03:14:16;;;;;;;6.88;3.92;;;;;;;;;;5067734;28;20032;-87
2022/03/16 03:16:42;;;;;;;8.05;3.63;;;;;;;;;;5070528;28;20123;-84
2022/03/16 03:19:07;;;;;;;5.97;3.65;;;;;;;;;;5064775;28;20102;-84
2022/03/16 03:21:33;;;;;;;7.88;4.00;;;;;;;;;;5067060;28;20363;-83
2022/03/16 03:23:59;;;;;;;8.55;4.05;;;;;;;;;;5067919;28;20407;-86
2022/03/16 03:26:24;;;;;;;8.00;4.32;;;;;;;;;;5052133;28;20032;-84
2022/03/16 03:28:50;;;;;;;5.38;3.63;;;;;;;;;;5058245;28;20033;-86
2022/03/16 03:31:15;;;;;;;5.60;3.97;;;;;;;;;;5060376;28;20031;-85
2022/03/16 03:33:41;;;;;;;7.75;4.20;;;;;;;;;;5061291;28;20025;-86
2022/03/16 03:36:06;;;;;;;6.70;3.80;;;;;;;;;;5061028;28;20465;-85
2022/03/16 03:38:31;;;;;;;5.38;3.72;;;;;;;;;;5064668;28;20077;-86
2022/03/16 03:40:57;;;;;;;5.20;3.38;;;;;;;;;;5056946;28;20025;-85
2022/03/16 03:43:22;;;;;;;6.65;4.05;;;;;;;;;;5065595;28;20207;-85
2022/03/16 03:45:48;;;;;;;6.75;4.00;;;;;;;;;;5055657;28;20472;-85
2022/03/16 03:48:14;;;;;;;6.45;3.50;;;;;;;;;;5071762;28;20083;-86
2022/03/16 03:50:39;;;;;;;6.22;3.53;;;;;;;;;;5062234;28;20484;-84
2022/03/16 03:53:05;;;;;;;7.18;4.82;;;;;;;;;;5066540;28;20028;-85
2022/03/16 03:55:30;;;;;;;7.38;3.60;;;;;;;;;;5057953;28;20028;-86
2022/03/16 03:57:57;;;;;;;7.53;3.50;;;;;;;;;;5058458;28;20032;-83
2022/03/16 04:00:23;;;;;;;6.90;4.57;;;;;;;;;;5066989;28;20476;-85
2022/03/16 04:02:50;;;;;;;6.65;3.88;;;;;;;;;;5065787;28;20032;-85
2022/03/16 04:05:19;;;;;;;7.70;4.03;;;;;;;;;;5055374;28;20602;-84
2022/03/16 04:07:44;;;;;;;7.05;4.10;;;;;;;;;;5054376;28;20031;-85
2022/03/16 04:10:10;;;;;;;5.60;3.63;;;;;;;;;;5065203;28;20036;-86
2022/03/16 04:12:36;;;;;;;5.53;3.35;;;;;;;;;;5058893;28;20461;-87
2022/03/16 04:15:03;;;;;;;7.07;3.47;;;;;;;;;;5052918;28;20213;-87
2022/03/16 04:17:29;;;;;;;11.40;5.95;;;;;;;;;;5053863;28;20038;-86
2022/03/16 04:19:54;;;;;;;7.80;4.78;;;;;;;;;;5067473;28;20020;-88
2022/03/16 04:22:20;;;;;;;6.30;4.85;;;;;;;;;;5055514;28;20120;-88
2022/03/16 04:24:46;;;;;;;7.25;4.30;;;;;;;;;;5055385;28;20021;-86
2022/03/16 04:27:11;;;;;;;8.13;3.80;;;;;;;;;;5060742;28;20103;-85
2022/03/16 04:29:36;;;;;;;10.15;6.15;;;;;;;;;;5064873;28;20028;-86
2022/03/16 04:32:02;;;;;;;6.55;4.05;;;;;;;;;;5061962;28;20025;-86
2022/03/16 04:34:28;;;;;;;7.13;4.05;;;;;;;;;;5058024;28;20440;-86
2022/03/16 04:36:53;;;;;;;7.82;4.22;;;;;;;;;;5054960;28;20108;-85
2022/03/16 04:39:19;;;;;;;7.72;3.67;;;;;;;;;;5058892;28;20436;-86
2022/03/16 04:41:44;;;;;;;7.93;4.07;;;;;;;;;;5064770;28;20056;-85
2022/03/16 04:44:10;;;;;;;5.78;3.78;;;;;;;;;;5055990;28;20383;-86
2022/03/16 04:46:35;;;;;;;8.60;4.25;;;;;;;;;;5060980;28;20432;-83
2022/03/16 04:49:01;;;;;;;7.93;4.85;;;;;;;;;;5057875;28;20029;-85
2022/03/16 04:51:26;;;;;;;8.40;5.05;;;;;;;;;;5065034;28;20020;-84
2022/03/16 04:53:52;;;;;;;8.98;4.65;;;;;;;;;;5063423;28;20366;-85
2022/03/16 04:56:17;;;;;;;9.05;5.07;;;;;;;;;;5065876;28;20111;-85
2022/03/16 04:58:43;;;;;;;8.90;5.00;;;;;;;;;;5059500;28;20021;-86
2022/03/16 05:01:08;;;;;;;8.23;4.85;;;;;;;;;;5055908;28;20043;-86
2022/03/16 05:03:34;;;;;;;10.48;6.05;;;;;;;;;;5064153;28;20024;-86
2022/03/16 05:05:59;;;;;;;7.95;5.20;;;;;;;;;;5057628;28;20396;-87
2022/03/16 05:08:25;;;;;;;7.60;4.57;;;;;;;;;;5063753;28;20112;-84
2022/03/16 05:10:50;;;;;;;7.22;5.72;;;;;;;;;;5051212;28;20048;-84
2022/03/16 05:13:16;;;;;;;7.38;4.03;;;;;;;;;;5056955;28;20562;-85
2022/03/16 05:15:41;;;;;;;7.60;4.63;;;;;;;;;;5052013;28;20025;-87
2022/03/16 05:18:07;;;;;;;7.70;4.68;;;;;;;;;;5055456;28;20024;-87
2022/03/16 05:20:32;;;;;;;8.75;5.05;;;;;;;;;;5067072;28;20068;-84
2022/03/16 05:22:58;;;;;;;8.88;4.78;;;;;;;;;;5068985;28;20086;-86
2022/03/16 05:25:26;;;;;;;8.68;4.40;;;;;;;;;;5053167;28;20540;-86
2022/03/16 05:27:52;;;;;;;7.88;4.78;;;;;;;;;;5053696;28;20467;-88
2022/03/16 05:30:20;;;;;;;8.07;4.57;;;;;;;;;;5062092;28;20031;-84
2022/03/16 05:32:46;;;;;;;8.77;5.07;;;;;;;;;;5068545;28;20029;-86
2022/03/16 05:35:13;;;;;;;8.07;4.65;;;;;;;;;;5056366;28;20025;-85
2022/03/16 05:37:40;;;;;;;8.00;4.82;;;;;;;;;;5060668;28;20522;-85
2022/03/16 05:40:07;;;;;;;6.30;4.38;;;;;;;;;;5061585;28;20024;-85
2022/03/16 05:42:33;;;;;;;9.93;4.90;;;;;;;;;;5042231;28;20123;-85
2022/03/16 05:44:59;;;;;;;5.38;3.88;;;;;;;;;;5053460;28;20128;-85
2022/03/16 05:47:25;;;;;;;8.63;5.22;;;;;;;;;;5054638;28;20484;-86
2022/03/16 05:49:52;;;;;;;7.30;4.40;;;;;;;;;;5061383;28;20060;-85
2022/03/16 05:52:21;;;;;;;9.32;4.43;;;;;;;;;;5052627;28;20473;-85
2022/03/16 05:54:50;;;;;;;8.30;4.47;;;;;;;;;;5066299;28;20542;-88
2022/03/16 05:57:16;;;;;;;8.15;4.70;;;;;;;;;;5054803;28;20035;-86
2022/03/16 05:59:42;;;;;;;12.40;5.95;;;;;;;;;;5061362;28;20454;-87
2022/03/16 06:02:09;;;;;;;8.77;5.20;;;;;;;;;;5049215;28;20116;-85
2022/03/16 06:04:35;;;;;;;7.57;4.57;;;;;;;;;;5053449;28;20831;-86
2022/03/16 06:07:01;;;;;;;8.48;4.97;;;;;;;;;;5052259;28;20032;-86
2022/03/16 06:09:27;;;;;;;8.55;4.68;;;;;;;;;;5056051;28;20037;-88
2022/03/16 06:11:52;;;;;;;11.73;6.25;;;;;;;;;;5058298;28;20036;-85
2022/03/16 06:14:18;;;;;;;19.27;6.95;;;;;;;;;;5058753;28;20032;-86
2022/03/16 06:16:44;;;;;;;13.35;7.60;;;;;;;;;;5062664;28;20028;-86
2022/03/16 06:19:10;;;;;;;11.27;7.15;;;;;;;;;;5063272;28;20028;-85
2022/03/16 06:21:35;;;;;;;13.23;7.25;;;;;;;;;;5057337;28;20473;-87
2022/03/16 06:24:01;;;;;;;27.75;13.93;;;;;;;;;;5065365;28;20051;-88
2022/03/16 06:26:26;;;;;;;14.82;8.55;;;;;;;;;;5063768;28;20090;-87
2022/03/16 06:28:52;;;;;;;13.43;7.90;;;;;;;;;;5051204;28;20024;-87
2022/03/16 06:31:17;;;;;;;10.90;7.30;;;;;;;;;;5050046;28;20021;-87
2022/03/16 06:33:43;;;;;;;12.65;7.53;;;;;;;;;;5050925;28;20028;-86
2022/03/16 06:36:08;;;;;;;14.85;7.70;;;;;;;;;;5062841;28;20033;-87
2022/03/16 06:38:34;;;;;;;12.68;7.45;;;;;;;;;;5061737;28;20476;-87
2022/03/16 06:40:59;;;;;;;10.38;6.10;;;;;;;;;;5069170;28;20032;-88
2022/03/16 06:43:25;;;;;;;13.90;8.38;;;;;;;;;;5069946;28;20025;-90
2022/03/16 06:45:50;;;;;;;11.93;8.75;;;;;;;;;;5053645;28;20040;-89
2022/03/16 06:48:16;;;;;;;18.02;11.88;;;;;;;;;;5064912;28;20103;-90
2022/03/16 06:50:42;;;;;;;20.60;13.35;;;;;;;;;;5058258;28;20087;-89
2022/03/16 06:53:08;;;;;;;16.15;10.80;;;;;;;;;;5061551;28;20031;-90
2022/03/16 06:55:33;;;;;;;14.23;8.27;;;;;;;;;;5054184;28;20104;-86
2022/03/16 06:57:59;;;;;;;15.75;8.48;;;;;;;;;;5068096;28;20024;-87
2022/03/16 07:00:24;;;;;;;18.42;10.32;;;;;;;;;;5060175;28;20073;-86
2022/03/16 07:02:56;;;;;;;15.50;10.35;;;;;;;;;;5063865;28;20491;-87
2022/03/16 07:05:25;;;;;;;16.60;9.63;;;;;;;;;;5065791;28;20021;-85
2022/03/16 07:07:51;;;;;;;17.08;10.15;;;;;;;;;;5051598;28;20029;-89
2022/03/16 07:10:17;;;;;;;37.95;17.77;;;;;;;;;;5063763;28;20051;-86
2022/03/16 07:12:42;;;;;;;43.75;20.38;;;;;;;;;;5056141;28;20025;-85
2022/03/16 07:15:09;;;;;;;33.85;18.67;;;;;;;;;;5051335;28;20111;-87
2022/03/16 07:17:34;;;;;;;30.85;16.45;;;;;;;;;;5053707;28;20385;-89
2022/03/16 07:19:59;;;;;;;40.00;17.58;;;;;;;;;;5063341;28;20031;-89
2022/03/16 07:22:25;;;;;;;52.40;21.85;;;;;;;;;;5071651;28;20033;-88
2022/03/16 07:24:50;;;;;;;46.30;20.10;;;;;;;;;;5062399;28;20032;-87
2022/03/16 07:27:16;;;;;;;42.15;16.77;;;;;;;;;;5052718;28;20506;-87
2022/03/16 07:29:41;;;;;;;39.80;16.13;;;;;;;;;;5066303;28;20056;-88
2022/03/16 07:32:07;;;;;;;32.88;17.17;;;;;;;;;;5056587;28;20017;-86
2022/03/16 07:34:33;;;;;;;33.50;16.70;;;;;;;;;;5055289;28;20028;-87
2022/03/16 07:36:58;;;;;;;28.10;15.68;;;;;;;;;;5051262;28;20032;-85
2022/03/16 07:39:24;;;;;;;29.08;14.15;;;;;;;;;;5053287;28;20025;-86
2022/03/16 07:41:49;;;;;;;23.23;13.93;;;;;;;;;;5055271;28;20056;-87
2022/03/16 07:44:15;;;;;;;25.60;15.18;;;;;;;;;;5051721;28;20040;-87
2022/03/16 07:46:41;;;;;;;25.73;14.80;;;;;;;;;;5054769;28;20035;-86
2022/03/16 07:49:06;;;;;;;37.55;16.52;;;;;;;;;;5050509;28;20477;-88
2022/03/16 07:51:32;;;;;;;40.78;19.58;;;;;;;;;;5051363;28;20036;-88
2022/03/16 07:53:57;;;;;;;41.78;20.08;;;;;;;;;;5049355;28;20036;-88
2022/03/16 07:56:23;;;;;;;55.92;25.83;;;;;;;;;;5062567;28;20055;-89
2022/03/16 07:58:48;;;;;;;50.50;24.02;;;;;;;;;;5063019;28;20075;-89
2022/03/16 08:01:14;;;;;;;42.40;19.92;;;;;;;;;;5051440;28;20021;-86
2022/03/16 08:03:39;;;;;;;56.03;29.33;;;;;;;;;;5054249;28;20369;-87
2022/03/16 08:06:05;;;;;;;60.92;33.60;;;;;;;;;;5061596;28;20499;-86
2022/03/16 08:08:31;;;;;;;101.68;52.85;;;;;;;;;;5057837;28;20081;-87
2022/03/16 08:10:58;;;;;;;51.15;26.05;;;;;;;;;;5058077;28;20064;-86
2022/03/16 08:13:24;;;;;;;36.25;20.40;;;;;;;;;;5049985;28;20051;-84
2022/03/16 08:15:49;;;;;;;32.13;16.98;;;;;;;;;;5069996;28;20111;-87
2022/03/16 08:18:15;;;;;;;31.85;17.88;;;;;;;;;;5047405;28;20021;-87
2022/03/16 08:20:40;;;;;;;36.65;16.38;;;;;;;;;;5051205;28;20025;-86
2022/03/16 08:23:06;;;;;;;25.70;16.13;;;;;;;;;;5060790;28;20036;-85
2022/03/16 08:25:31;;;;;;;33.45;18.77;;;;;;;;;;5059921;28;20468;-84
2022/03/16 08:27:59;;;;;;;32.42;17.55;;;;;;;;;;5050900;28;20513;-84
2022/03/16 08:30:25;;;;;;;29.08;16.58;;;;;;;;;;5051795;28;20111;-85
2022/03/16 08:32:50;;;;;;;24.58;15.48;;;;;;;;;;5059704;28;20107;-87
2022/03/16 08:35:16;;;;;;;39.55;19.83;;;;;;;;;;5051440;28;20052;-85
2022/03/16 08:37:41;;;;;;;56.58;24.65;;;;;;;;;;5062926;28;20488;-85
2022/03/16 08:40:07;;;;;;;45.65;23.05;;;;;;;;;;5060868;28;20028;-87
2022/03/16 08:42:33;;;;;;;33.33;18.33;;;;;;;;;;5049577;28;20047;-87
2022/03/16 08:44:59;;;;;;;26.33;16.08;;;;;;;;;;5049431;28;20470;-86
2022/03/16 08:47:24;;;;;;;34.40;18.67;;;;;;;;;;5053217;28;20048;-86
2022/03/16 08:49:53;;;;;;;47.70;20.77;;;;;;;;;;5049890;28;20037;-86
2022/03/16 08:52:19;;;;;;;37.30;16.52;;;;;;;;;;5047913;28;20454;-87
2022/03/16 08:54:45;;;;;;;25.20;12.88;;;;;;;;;;5054388;28;20036;-84
2022/03/16 08:57:11;;;;;;;32.28;17.13;;;;;;;;;;5049757;28;20033;-83
2022/03/16 08:59:37;;;;;;;59.65;33.63;;;;;;;;;;5044958;28;20025;-86
2022/03/16 09:02:03;;;;;;;41.10;19.83;;;;;;;;;;5057565;28;20485;-85
2022/03/16 09:04:30;;;;;;;28.50;14.45;;;;;;;;;;5053421;28;20040;-84
2022/03/16 09:06:56;;;;;;;28.55;13.80;;;;;;;;;;5046832;28;20043;-88
2022/03/16 09:09:22;;;;;;;25.88;13.73;;;;;;;;;;5049431;28;20475;-84
2022/03/16 09:11:48;;;;;;;24.50;15.10;;;;;;;;;;5051189;28;20044;-86
2022/03/16 09:14:14;;;;;;;20.17;12.98;;;;;;;;;;5051055;28;20020;-84
2022/03/16 09:16:40;;;;;;;34.22;14.98;;;;;;;;;;5053053;28;20080;-85
2022/03/16 09:19:05;;;;;;;25.40;13.15;;;;;;;;;;5066965;28;20024;-83
2022/03/16 09:21:31;;;;;;;20.40;12.30;;;;;;;;;;5057319;28;20020;-85
2022/03/16 09:23:57;;;;;;;27.10;13.63;;;;;;;;;;5057198;28;20032;-85
2022/03/16 09:26:22;;;;;;;25.35;13.85;;;;;;;;;;5059130;28;20649;-83
2022/03/16 09:28:49;;;;;;;24.73;15.07;;;;;;;;;;5057365;28;20044;-88
2022/03/16 09:31:15;;;;;;;40.72;22.33;;;;;;;;;;5056208;28;20029;-88
2022/03/16 09:33:40;;;;;;;25.77;14.88;;;;;;;;;;5054262;28;20025;-86
2022/03/16 09:36:08;;;;;;;30.60;17.30;;;;;;;;;;5063216;28;20052;-84
2022/03/16 09:38:34;;;;;;;25.38;12.70;;;;;;;;;;5056756;28;20379;-86
2022/03/16 09:41:01;;;;;;;24.38;12.88;;;;;;;;;;5058405;28;20030;-86
2022/03/16 09:43:27;;;;;;;23.88;12.98;;;;;;;;;;5060198;28;20025;-86
2022/03/16 09:46:15;;;;;;;26.75;13.95;;;;;;;;;;5057554;28;20555;-84
2022/03/16 09:48:42;;;;;;;26.83;13.50;;;;;;;;;;5058883;28;20024;-85
2022/03/16 09:51:11;;;;;;;25.00;12.60;;;;;;;;;;5062554;28;20439;-83
2022/03/16 09:53:38;;;;;;;23.35;13.68;;;;;;;;;;5053964;28;20499;-85
2022/03/16 09:56:05;;;;;;;20.88;12.65;;;;;;;;;;5055181;28;20070;-84
2022/03/16 09:58:32;;;;;;;25.13;12.07;;;;;;;;;;5059108;28;20357;-84
2022/03/16 10:00:58;;;;;;;19.90;12.43;;;;;;;;;;5060071;28;20150;-86
2022/03/16 10:03:31;;;;;;;20.48;12.57;;;;;;;;;;5058041;28;20066;-84
2022/03/16 10:05:57;;;;;;;27.77;13.45;;;;;;;;;;5067990;28;20124;-84
2022/03/16 10:08:35;;;;;;;36.45;20.13;;;;;;;;;;5063469;28;20494;-86
2022/03/16 10:14:05;;;;;;;26.25;14.70;;;;;;;;;;5054476;28;20044;-86
2022/03/16 10:17:43;;;;;;;21.35;13.68;;;;;;;;;;5056487;28;20104;-87
2022/03/16 10:19:19;;;;;;;29.13;14.30;;;;;;;;;;5067147;28;20116;-87
2022/03/16 10:22:04;;;;;;;32.60;14.23;;;;;;;;;;5055042;28;20033;-84
2022/03/16 10:24:30;;;;;;;23.33;14.05;;;;;;;;;;5058208;28;20020;-84
2022/03/16 10:26:59;;;;;;;32.05;14.45;;;;;;;;;;5057925;28;20362;-86
2022/03/16 10:29:31;;;;;;;35.13;14.63;;;;;;;;;;5066455;28;20032;-84
2022/03/16 10:32:04;;;;;;;25.65;14.30;;;;;;;;;;5061262;28;20024;-85
2022/03/16 10:34:31;;;;;;;32.83;13.65;;;;;;;;;;5057995;28;20115;-85
2022/03/16 10:36:59;;;;;;;21.98;13.55;;;;;;;;;;5060149;28;20040;-87
2022/03/16 10:39:35;;;;;;;22.67;13.65;;;;;;;;;;5052337;28;20017;-87
2022/03/16 10:47:56;;;;;;;25.60;13.77;;;;;;;;;;5066223;28;20027;-85
2022/03/16 10:50:21;;;;;;;29.88;14.25;;;;;;;;;;5063227;28;20380;-85
2022/03/16 10:52:50;;;;;;;24.40;14.65;;;;;;;;;;5052707;28;20029;-85
2022/03/16 10:55:18;;;;;;;29.40;14.27;;;;;;;;;;5062418;28;20025;-84
2022/03/16 10:57:44;;;;;;;23.92;13.70;;;;;;;;;;5054475;28;20137;-86
2022/03/16 11:00:10;;;;;;;28.65;14.85;;;;;;;;;;5056864;28;20035;-84
2022/03/16 11:02:36;;;;;;;30.45;14.70;;;;;;;;;;5051393;28;20159;-86
2022/03/16 11:05:02;;;;;;;24.75;14.27;;;;;;;;;;5055340;28;20135;-83
2022/03/16 11:07:30;;;;;;;25.48;14.15;;;;;;;;;;5065495;28;20408;-86
2022/03/16 11:09:57;;;;;;;26.25;14.38;;;;;;;;;;5059847;28;20062;-84
2022/03/16 11:15:08;;;;;;;28.23;14.77;;;;;;;;;;5060268;28;20063;-86
2022/03/16 11:17:36;;;;;;;32.22;17.55;;;;;;;;;;5053106;28;20025;-84
2022/03/16 11:20:03;;;;;;;32.70;15.55;;;;;;;;;;5053648;28;20037;-85
2022/03/16 11:22:37;;;;;;;27.13;16.73;;;;;;;;;;5059552;28;20527;-85
2022/03/16 11:25:10;;;;;;;29.90;17.33;;;;;;;;;;5063686;28;20048;-84
2022/03/16 11:27:41;;;;;;;31.73;15.95;;;;;;;;;;5055300;28;20111;-86
2022/03/16 11:30:33;;;;;;;29.67;15.90;;;;;;;;;;5066192;28;20024;-84
2022/03/16 11:33:04;;;;;;;28.10;16.90;;;;;;;;;;5063790;28;20024;-87
2022/03/16 11:35:35;;;;;;;32.35;15.85;;;;;;;;;;5054499;28;20031;-85
2022/03/16 11:38:11;;;;;;;25.33;14.52;;;;;;;;;;5056577;28;20063;-87
2022/03/16 11:40:40;;;;;;;30.65;15.55;;;;;;;;;;5060842;28;20033;-86
2022/03/16 11:43:06;;;;;;;28.80;15.25;;;;;;;;;;5061224;28;20083;-87
2022/03/16 11:45:37;;;;;;;27.27;13.98;;;;;;;;;;5059398;28;20064;-86
2022/03/16 11:48:34;;;;;;;31.27;16.80;;;;;;;;;;5062136;28;20496;-84
2022/03/16 11:51:08;;;;;;;28.75;15.70;;;;;;;;;;5052526;28;20495;-85
2022/03/16 11:53:46;;;;;;;27.33;15.45;;;;;;;;;;5063588;28;20032;-85
2022/03/16 11:56:20;;;;;;;27.55;15.57;;;;;;;;;;5060992;28;20025;-83
2022/03/16 11:58:47;;;;;;;34.25;16.17;;;;;;;;;;5056532;28;20024;-86
2022/03/16 12:01:34;;;;;;;23.15;14.05;;;;;;;;;;5057215;28;20029;-85
2022/03/16 12:04:11;;;;;;;27.08;14.63;;;;;;;;;;5053220;28;20033;-85
2022/03/16 12:07:01;;;;;;;25.27;15.82;;;;;;;;;;5063509;28;20035;-86
2022/03/16 12:09:46;;;;;;;32.30;15.82;;;;;;;;;;5060957;28;20032;-86
2022/03/16 12:15:11;;;;;;;27.75;15.52;;;;;;;;;;5059384;28;20439;-85
2022/03/16 12:17:41;;;;;;;30.13;14.20;;;;;;;;;;5053452;28;20866;-87
2022/03/16 12:20:15;;;;;;;30.08;14.25;;;;;;;;;;5049135;28;20032;-83
2022/03/16 12:22:46;;;;;;;29.73;16.15;;;;;;;;;;5060454;28;20116;-84
2022/03/16 12:25:27;;;;;;;26.65;15.20;;;;;;;;;;5056322;28;20448;-85
2022/03/16 12:30:54;;;;;;;28.73;13.57;;;;;;;;;;5055094;28;20039;-86
2022/03/16 12:33:23;;;;;;;30.77;14.30;;;;;;;;;;5059198;28;20036;-87
2022/03/16 12:35:54;;;;;;;25.02;13.75;;;;;;;;;;5055834;28;20051;-87
2022/03/16 12:38:21;;;;;;;21.42;12.93;;;;;;;;;;5061791;28;20063;-84
2022/03/16 12:43:35;;;;;;;25.80;13.75;;;;;;;;;;5063217;28;20597;-87
2022/03/16 12:46:14;;;;;;;28.80;14.90;;;;;;;;;;5054169;28;20024;-86
2022/03/16 12:48:40;;;;;;;24.23;12.70;;;;;;;;;;5056890;28;20277;-86
2022/03/16 12:51:05;;;;;;;27.75;12.38;;;;;;;;;;5058213;28;20036;-85
2022/03/16 12:53:44;;;;;;;24.92;13.57;;;;;;;;;;5061355;28;20043;-86
2022/03/16 12:56:19;;;;;;;29.77;13.73;;;;;;;;;;5063235;28;20036;-86
2022/03/16 12:58:55;;;;;;;22.45;13.98;;;;;;;;;;5058135;28;20048;-87
2022/03/16 13:01:22;;;;;;;38.25;15.50;;;;;;;;;;5054464;28;20023;-85
2022/03/16 13:03:56;;;;;;;27.80;13.68;;;;;;;;;;5057380;28;20025;-87
2022/03/16 13:06:21;;;;;;;25.60;13.98;;;;;;;;;;5047345;28;20480;-84
2022/03/16 13:08:50;;;;;;;24.45;14.88;;;;;;;;;;5048879;28;20063;-86
2022/03/16 13:11:28;;;;;;;22.90;13.38;;;;;;;;;;5049659;28;20081;-86
2022/03/16 13:14:21;;;;;;;28.08;14.15;;;;;;;;;;5049446;28;20119;-87
2022/03/16 13:16:55;;;;;;;28.40;17.63;;;;;;;;;;5045976;28;20064;-84
2022/03/16 13:19:31;;;;;;;26.27;15.10;;;;;;;;;;5046175;28;20080;-86
2022/03/16 13:22:09;;;;;;;31.42;15.18;;;;;;;;;;5052984;28;20024;-85
2022/03/16 13:24:40;;;;;;;26.05;15.38;;;;;;;;;;5052346;28;20045;-86
2022/03/16 13:27:08;;;;;;;29.95;16.15;;;;;;;;;;5052195;28;20470;-86
2022/03/16 13:29:37;;;;;;;32.00;15.30;;;;;;;;;;5056867;28;20037;-85
2022/03/16 13:32:06;;;;;;;31.55;14.57;;;;;;;;;;5059170;28;20112;-84
2022/03/16 13:34:36;;;;;;;29.38;14.85;;;;;;;;;;5053429;28;20021;-87
2022/03/16 13:37:18;;;;;;;29.80;15.55;;;;;;;;;;5052904;28;20043;-86
2022/03/16 13:40:13;;;;;;;27.17;14.50;;;;;;;;;;5053131;28;20032;-86
2022/03/16 13:42:41;;;;;;;28.25;13.77;;;;;;;;;;5066515;28;20038;-84
2022/03/16 13:45:26;;;;;;;26.38;13.50;;;;;;;;;;5064054;28;20107;-87
2022/03/16 13:48:11;;;;;;;22.60;13.43;;;;;;;;;;5053161;28;20178;-86
2022/03/16 13:50:37;;;;;;;23.02;14.68;;;;;;;;;;5055455;28;20039;-85
2022/03/16 13:53:15;;;;;;;27.38;14.23;;;;;;;;;;5071431;28;20559;-84
2022/03/16 13:55:41;;;;;;;20.42;13.48;;;;;;;;;;5057344;28;20025;-87
2022/03/16 13:58:11;;;;;;;21.08;12.15;;;;;;;;;;5055828;28;20082;-86
2022/03/16 14:00:50;;;;;;;22.50;11.93;;;;;;;;;;5062169;28;20393;-86
2022/03/16 14:03:21;;;;;;;22.75;11.65;;;;;;;;;;5057892;28;20052;-86
2022/03/16 14:05:47;;;;;;;28.25;14.25;;;;;;;;;;5052420;28;20049;-85
2022/03/16 14:08:14;;;;;;;22.30;11.63;;;;;;;;;;5053332;28;20487;-85
2022/03/16 14:10:43;;;;;;;23.02;12.25;;;;;;;;;;5057228;28;20052;-86
2022/03/16 14:13:11;;;;;;;21.00;11.45;;;;;;;;;;5059818;28;20032;-87
2022/03/16 14:15:37;;;;;;;18.42;10.55;;;;;;;;;;5058404;28;20055;-86
2022/03/16 14:18:11;;;;;;;17.35;10.88;;;;;;;;;;5060478;28;20020;-84
2022/03/16 14:20:48;;;;;;;20.15;10.85;;;;;;;;;;5058715;28;20067;-84
2022/03/16 14:23:14;;;;;;;19.85;11.25;;;;;;;;;;5056004;28;20028;-86
2022/03/16 14:25:47;;;;;;;19.25;10.70;;;;;;;;;;5056411;28;20376;-86
2022/03/16 14:28:13;;;;;;;25.95;10.90;;;;;;;;;;5061825;28;20021;-86
2022/03/16 14:30:50;;;;;;;18.45;10.63;;;;;;;;;;5052991;28;20442;-85
2022/03/16 14:33:23;;;;;;;20.45;11.40;;;;;;;;;;5060350;28;20036;-85
2022/03/16 14:35:57;;;;;;;22.90;11.68;;;;;;;;;;5061057;28;20025;-87
2022/03/16 14:38:23;;;;;;;32.42;14.07;;;;;;;;;;5052634;28;20376;-83
2022/03/16 14:40:55;;;;;;;23.55;12.90;;;;;;;;;;5059684;28;20029;-84
2022/03/16 14:43:27;;;;;;;25.60;12.80;;;;;;;;;;5049915;28;20036;-86
2022/03/16 14:45:54;;;;;;;28.77;14.75;;;;;;;;;;5047113;28;20560;-87
2022/03/16 14:48:20;;;;;;;23.98;12.60;;;;;;;;;;5047675;28;20059;-87
2022/03/16 14:50:48;;;;;;;22.42;14.50;;;;;;;;;;5045069;28;20033;-85
2022/03/16 14:53:13;;;;;;;27.65;14.38;;;;;;;;;;5057014;28;20488;-85